createdAt,value
2023-06-17T00:01:52.734Z,5.53
2023-06-17T00:04:20.971Z,8.25
2023-06-17T00:06:49.231Z,6.28
2023-06-17T00:09:17.462Z,7.05
2023-06-17T00:11:45.717Z,5.70
2023-06-17T00:14:13.965Z,6.72
2023-06-17T00:16:44.950Z,7.22
2023-06-17T00:19:17.295Z,7.07
2023-06-17T00:21:49.399Z,7.30
2023-06-17T00:24:17.761Z,7.30
2023-06-17T00:26:46.088Z,6.82
2023-06-17T00:29:14.487Z,6.00
2023-06-17T00:31:44.096Z,6.97
2023-06-17T00:34:12.330Z,5.85
2023-06-17T00:36:40.564Z,9.38
2023-06-17T00:39:09.086Z,6.43
2023-06-17T00:41:37.341Z,6.60
2023-06-17T00:44:05.784Z,7.72
2023-06-17T00:46:36.962Z,7.15
2023-06-17T00:49:07.552Z,6.57
2023-06-17T00:51:35.982Z,9.10
2023-06-17T00:54:04.663Z,7.72
2023-06-17T00:56:34.390Z,7.07
2023-06-17T00:59:04.645Z,7.38
2023-06-17T01:01:36.478Z,7.00
2023-06-17T01:04:06.020Z,6.45
2023-06-17T01:06:41.166Z,7.18
2023-06-17T01:09:12.589Z,7.07
2023-06-17T01:11:41.608Z,8.70
2023-06-17T01:14:11.615Z,7.57
2023-06-17T01:16:43.326Z,7.90
2023-06-17T01:19:19.350Z,7.97
2023-06-17T01:21:50.573Z,6.45
2023-06-17T01:24:28.361Z,6.78
2023-06-17T01:26:58.329Z,7.10
2023-06-17T01:29:27.411Z,8.05
2023-06-17T01:31:58.888Z,7.65
2023-06-17T01:34:32.547Z,7.68
2023-06-17T01:37:01.622Z,10.07
2023-06-17T01:39:32.974Z,6.88
2023-06-17T01:42:03.089Z,6.65
2023-06-17T01:44:32.465Z,6.90
2023-06-17T01:47:00.980Z,7.18
2023-06-17T01:49:29.310Z,7.47
2023-06-17T01:51:57.526Z,7.47
2023-06-17T01:54:25.981Z,7.47
2023-06-17T01:56:55.600Z,8.25
2023-06-17T01:59:23.899Z,7.95
2023-06-17T02:01:52.136Z,8.32
2023-06-17T02:04:20.460Z,6.93
2023-06-17T02:06:48.725Z,8.02
2023-06-17T02:09:17.002Z,8.15
2023-06-17T02:11:45.247Z,6.85
2023-06-17T02:14:14.852Z,5.53
2023-06-17T02:16:45.789Z,8.23
2023-06-17T02:19:15.849Z,6.70
2023-06-17T02:21:44.601Z,7.65
2023-06-17T02:24:13.175Z,7.95
2023-06-17T02:26:41.930Z,6.47
2023-06-17T02:29:10.244Z,8.82
2023-06-17T02:31:39.950Z,8.05
2023-06-17T02:34:08.242Z,7.03
2023-06-17T02:36:38.334Z,6.53
2023-06-17T02:39:06.921Z,7.82
2023-06-17T02:41:35.436Z,7.07
2023-06-17T02:44:03.663Z,8.18
2023-06-17T02:46:32.195Z,7.95
2023-06-17T02:49:01.820Z,7.00
2023-06-17T02:51:30.404Z,8.98
2023-06-17T02:53:58.845Z,7.50
2023-06-17T02:56:27.568Z,9.63
2023-06-17T02:58:55.825Z,5.50
2023-06-17T03:01:24.102Z,7.10
2023-06-17T03:03:56.170Z,6.32
2023-06-17T03:06:25.846Z,5.97
2023-06-17T03:08:54.888Z,6.65
2023-06-17T03:11:23.137Z,7.50
2023-06-17T03:13:51.380Z,8.30
2023-06-17T03:16:19.790Z,7.93
2023-06-17T03:18:48.275Z,8.30
2023-06-17T03:21:16.567Z,9.52
2023-06-17T03:23:46.877Z,8.07
2023-06-17T03:26:17.167Z,9.02
2023-06-17T03:28:45.509Z,9.13
2023-06-17T03:31:14.363Z,7.72
2023-06-17T03:33:42.733Z,8.02
2023-06-17T03:36:11.000Z,7.03
2023-06-17T03:38:39.262Z,8.13
2023-06-17T03:41:08.880Z,7.78
2023-06-17T03:43:37.142Z,10.85
2023-06-17T03:46:05.391Z,8.77
2023-06-17T03:48:33.707Z,8.30
2023-06-17T03:51:02.267Z,9.13
2023-06-17T03:53:30.585Z,12.23
2023-06-17T03:55:58.845Z,8.48
2023-06-17T03:58:29.473Z,8.00
2023-06-17T04:00:58.221Z,9.23
2023-06-17T04:03:27.766Z,9.70
2023-06-17T04:05:56.093Z,8.10
2023-06-17T04:08:24.726Z,8.93
2023-06-17T04:10:53.237Z,9.30
2023-06-17T04:13:21.629Z,8.23
2023-06-17T04:15:51.213Z,10.13
2023-06-17T04:18:19.492Z,9.05
2023-06-17T04:20:47.826Z,8.30
2023-06-17T04:23:16.127Z,9.88
2023-06-17T04:25:44.372Z,9.10
2023-06-17T04:28:14.047Z,9.55
2023-06-17T04:30:42.518Z,9.48
2023-06-17T04:33:12.804Z,9.10
2023-06-17T04:35:43.093Z,11.95
2023-06-17T04:38:11.699Z,8.88
2023-06-17T04:40:40.166Z,9.82
2023-06-17T04:43:08.789Z,9.45
2023-06-17T04:45:37.166Z,9.82
2023-06-17T04:48:06.978Z,9.95
2023-06-17T04:50:36.946Z,8.25
2023-06-17T04:53:05.745Z,10.02
2023-06-17T04:55:36.368Z,9.63
2023-06-17T04:58:05.671Z,9.13
2023-06-17T05:00:34.102Z,10.32
2023-06-17T05:03:02.445Z,10.15
2023-06-17T05:05:30.787Z,11.75
2023-06-17T05:08:00.419Z,10.18
2023-06-17T05:10:28.827Z,10.80
2023-06-17T05:12:57.087Z,11.15
2023-06-17T05:15:25.380Z,7.88
2023-06-17T05:17:53.700Z,8.77
2023-06-17T05:20:22.243Z,9.40
2023-06-17T05:22:50.600Z,9.13
2023-06-17T05:25:20.415Z,8.05
2023-06-17T05:27:49.406Z,8.30
2023-06-17T05:30:17.817Z,9.93
2023-06-17T05:32:46.299Z,11.90
2023-06-17T05:35:14.675Z,12.57
2023-06-17T05:37:42.908Z,8.25
2023-06-17T05:40:11.451Z,9.07
2023-06-17T05:42:41.125Z,9.00
2023-06-17T05:45:09.959Z,9.98
2023-06-17T05:47:38.219Z,12.50
2023-06-17T05:50:09.157Z,17.85
2023-06-17T05:52:37.388Z,13.88
2023-06-17T05:55:05.849Z,10.07
2023-06-17T05:57:34.123Z,12.07
2023-06-17T06:00:04.300Z,10.85
2023-06-17T06:02:32.600Z,9.98
2023-06-17T06:05:00.848Z,16.35
2023-06-17T06:07:29.114Z,12.45
2023-06-17T06:09:57.342Z,12.77
2023-06-17T06:12:25.810Z,9.07
2023-06-17T06:14:55.244Z,7.95
2023-06-17T06:17:24.942Z,7.65
2023-06-17T06:19:53.226Z,10.00
2023-06-17T06:22:21.465Z,8.77
2023-06-17T06:24:49.708Z,9.85
2023-06-17T06:27:18.191Z,12.27
2023-06-17T06:29:46.473Z,8.05
2023-06-17T06:32:14.826Z,9.00
2023-06-17T06:34:46.611Z,7.47
2023-06-17T06:37:14.858Z,7.75
2023-06-17T06:39:44.004Z,8.65
2023-06-17T06:42:13.006Z,10.05
2023-06-17T06:44:41.253Z,6.55
2023-06-17T06:47:09.545Z,8.32
2023-06-17T06:49:37.825Z,7.85
2023-06-17T06:52:07.819Z,7.22
2023-06-17T06:54:36.105Z,8.77
2023-06-17T06:57:04.407Z,8.75
2023-06-17T06:59:32.676Z,5.85
2023-06-17T07:02:00.910Z,6.20
2023-06-17T07:04:29.212Z,9.00
2023-06-17T07:06:57.880Z,9.55
2023-06-17T07:09:27.460Z,8.82
2023-06-17T07:11:55.709Z,8.07
2023-06-17T07:14:24.024Z,7.00
2023-06-17T07:16:52.413Z,8.88
2023-06-17T07:19:20.701Z,9.20
2023-06-17T07:21:50.134Z,8.32
2023-06-17T07:24:18.502Z,6.82
2023-06-17T07:26:48.297Z,5.75
2023-06-17T07:29:16.620Z,6.43
2023-06-17T07:31:44.883Z,7.63
2023-06-17T07:34:13.167Z,11.85
2023-06-17T07:36:41.426Z,7.30
2023-06-17T07:39:09.688Z,8.38
2023-06-17T07:41:38.184Z,5.78
2023-06-17T07:44:08.063Z,6.55
2023-06-17T07:46:36.394Z,7.35
2023-06-17T07:49:04.667Z,9.40
2023-06-17T07:51:32.954Z,14.57
2023-06-17T07:54:02.224Z,8.20
2023-06-17T07:56:30.493Z,9.75
2023-06-17T07:59:00.359Z,7.00
2023-06-17T08:01:30.028Z,5.82
2023-06-17T08:03:58.398Z,7.57
2023-06-17T08:06:27.114Z,6.68
2023-06-17T08:08:55.357Z,6.35
2023-06-17T08:11:23.901Z,7.35
2023-06-17T08:13:52.104Z,7.43
2023-06-17T08:16:20.380Z,8.55
2023-06-17T08:18:49.967Z,6.53
2023-06-17T08:21:18.208Z,6.70
2023-06-17T08:23:46.438Z,8.30
2023-06-17T08:26:15.034Z,6.65
2023-06-17T08:28:43.285Z,7.68
2023-06-17T08:31:11.538Z,5.82
2023-06-17T08:33:39.757Z,6.25
2023-06-17T08:36:09.396Z,8.18
2023-06-17T08:38:39.897Z,6.10
2023-06-17T08:41:08.188Z,6.22
2023-06-17T08:43:38.610Z,7.15
2023-06-17T08:46:07.160Z,6.60
2023-06-17T08:48:35.629Z,9.18
2023-06-17T08:51:04.280Z,6.90
2023-06-17T08:53:34.790Z,7.45
2023-06-17T08:56:03.016Z,6.45
2023-06-17T08:58:31.921Z,6.45
2023-06-17T09:01:00.924Z,5.75
2023-06-17T09:03:29.243Z,6.60
2023-06-17T09:05:57.479Z,6.10
2023-06-17T09:08:25.937Z,6.10
2023-06-17T09:10:55.554Z,5.90
2023-06-17T09:13:23.794Z,5.93
2023-06-17T09:15:52.044Z,6.18
2023-06-17T09:18:20.412Z,5.93
2023-06-17T09:20:52.993Z,6.80
2023-06-17T09:23:21.226Z,9.85
2023-06-17T09:25:49.628Z,6.28
2023-06-17T09:28:19.785Z,4.82
2023-06-17T09:30:54.567Z,5.70
2023-06-17T09:33:23.332Z,4.97
2023-06-17T09:36:00.406Z,8.20
2023-06-17T09:38:29.224Z,4.70
2023-06-17T09:40:58.029Z,5.15
2023-06-17T09:43:28.793Z,6.22
2023-06-17T09:45:58.316Z,5.55
2023-06-17T09:48:30.850Z,4.65
2023-06-17T09:51:00.199Z,6.88
2023-06-17T09:53:30.221Z,7.07
2023-06-17T09:55:59.657Z,6.88
2023-06-17T09:58:30.353Z,8.25
2023-06-17T10:00:59.540Z,4.68
2023-06-17T10:03:27.951Z,5.63
2023-06-17T10:05:57.846Z,5.25
2023-06-17T10:08:26.906Z,6.78
2023-06-17T10:10:59.045Z,5.72
2023-06-17T10:13:31.662Z,5.93
2023-06-17T10:16:02.065Z,6.72
2023-06-17T10:18:31.649Z,5.85
2023-06-17T10:21:01.287Z,5.72
2023-06-17T10:23:31.553Z,5.00
2023-06-17T10:25:59.861Z,4.57
2023-06-17T10:28:44.419Z,4.28
2023-06-17T10:31:27.397Z,4.25
2023-06-17T10:33:56.448Z,7.68
2023-06-17T10:36:24.882Z,5.63
2023-06-17T10:38:57.798Z,4.93
2023-06-17T10:41:45.996Z,5.18
2023-06-17T10:44:31.310Z,5.22
2023-06-17T10:47:01.141Z,5.13
2023-06-17T10:49:38.870Z,5.05
2023-06-17T10:52:07.529Z,4.57
2023-06-17T10:54:36.194Z,4.97
2023-06-17T10:57:05.443Z,6.55
2023-06-17T10:59:34.804Z,5.35
2023-06-17T11:02:07.766Z,5.05
2023-06-17T11:07:05.899Z,4.78
2023-06-17T11:09:35.812Z,5.20
2023-06-17T11:12:04.978Z,4.75
2023-06-17T11:14:34.251Z,5.85
2023-06-17T11:17:04.033Z,4.72
2023-06-17T11:19:32.358Z,3.90
2023-06-17T11:22:04.562Z,5.10
2023-06-17T11:24:33.157Z,5.05
2023-06-17T11:27:01.845Z,5.03
2023-06-17T11:29:31.131Z,5.30
2023-06-17T11:32:01.019Z,5.25
2023-06-17T11:34:33.192Z,4.60
2023-06-17T11:37:02.376Z,4.88
2023-06-17T11:39:31.931Z,5.03
2023-06-17T11:42:02.997Z,4.93
2023-06-17T11:44:33.254Z,6.32
2023-06-17T11:47:05.626Z,7.55
2023-06-17T11:49:35.795Z,6.35
2023-06-17T11:52:07.020Z,4.15
2023-06-17T11:54:35.501Z,5.38
2023-06-17T11:57:04.700Z,5.55
2023-06-17T11:59:33.111Z,4.35
2023-06-17T12:02:01.679Z,5.10
2023-06-17T12:04:31.426Z,4.72
2023-06-17T12:07:01.221Z,6.72
2023-06-17T12:09:29.552Z,5.60
2023-06-17T12:11:57.818Z,6.85
2023-06-17T12:14:26.651Z,5.50
2023-06-17T12:16:54.975Z,6.70
2023-06-17T12:19:24.355Z,5.28
2023-06-17T12:21:53.250Z,5.38
2023-06-17T12:24:22.882Z,5.55
2023-06-17T12:26:51.299Z,4.55
2023-06-17T12:29:25.534Z,5.43
2023-06-17T12:31:54.989Z,4.72
2023-06-17T12:34:23.406Z,4.55
2023-06-17T12:36:52.107Z,7.15
2023-06-17T12:39:20.397Z,6.15
2023-06-17T12:41:50.062Z,4.28
2023-06-17T12:44:18.953Z,4.55
2023-06-17T12:46:47.367Z,4.03
2023-06-17T12:49:15.835Z,4.75
2023-06-17T12:51:44.112Z,7.13
2023-06-17T12:54:12.377Z,5.15
2023-06-17T12:56:42.340Z,5.40
2023-06-17T12:59:11.993Z,5.88
2023-06-17T13:01:40.325Z,4.97
2023-06-17T13:04:08.639Z,4.47
2023-06-17T13:06:36.991Z,4.70
2023-06-17T13:09:05.844Z,4.68
2023-06-17T13:11:34.450Z,6.55
2023-06-17T13:14:02.739Z,5.80
2023-06-17T13:16:32.538Z,5.47
2023-06-17T13:19:01.599Z,5.57
2023-06-17T13:21:29.866Z,5.30
2023-06-17T13:23:58.242Z,6.15
2023-06-17T13:26:29.248Z,4.20
2023-06-17T13:28:57.595Z,5.75
2023-06-17T13:31:26.328Z,4.63
2023-06-17T13:33:55.949Z,4.90
2023-06-17T13:36:24.239Z,4.50
2023-06-17T13:38:52.536Z,4.40
2023-06-17T13:41:21.385Z,5.75
2023-06-17T13:43:49.661Z,4.78
2023-06-17T13:46:17.938Z,4.75
2023-06-17T13:48:46.201Z,7.07
2023-06-17T13:51:15.820Z,4.50
2023-06-17T13:53:44.276Z,5.07
2023-06-17T13:56:12.960Z,5.25
2023-06-17T13:58:41.233Z,7.43
2023-06-17T14:01:09.495Z,4.95
2023-06-17T14:03:38.091Z,6.07
2023-06-17T14:06:07.476Z,5.55
2023-06-17T14:08:37.137Z,5.00
2023-06-17T14:11:05.642Z,4.40
2023-06-17T14:13:33.897Z,5.95
2023-06-17T14:16:04.178Z,5.40
2023-06-17T14:18:32.479Z,5.50
2023-06-17T14:21:00.752Z,7.28
2023-06-17T14:23:28.991Z,5.05
2023-06-17T14:25:59.019Z,5.22
2023-06-17T14:28:27.289Z,7.25
2023-06-17T14:30:55.520Z,5.72
2023-06-17T14:33:23.764Z,5.05
2023-06-17T14:35:51.989Z,4.80
2023-06-17T14:38:20.265Z,4.97
2023-06-17T14:40:48.506Z,5.32
2023-06-17T14:43:18.123Z,5.85
2023-06-17T14:45:46.396Z,5.60
2023-06-17T14:48:14.828Z,4.82
2023-06-17T14:50:43.117Z,4.63
2023-06-17T14:53:11.491Z,5.28
2023-06-17T14:55:39.925Z,7.28
2023-06-17T14:58:12.257Z,4.75
2023-06-17T15:00:41.932Z,6.20
2023-06-17T15:03:11.694Z,5.07
2023-06-17T15:05:40.048Z,5.57
2023-06-17T15:08:10.087Z,4.38
2023-06-17T15:10:38.801Z,5.32
2023-06-17T15:13:07.423Z,5.32
2023-06-17T15:15:36.421Z,4.68
2023-06-17T15:18:06.216Z,4.68
2023-06-17T15:20:34.530Z,5.30
2023-06-17T15:23:03.505Z,5.25
2023-06-17T15:25:31.865Z,5.03
2023-06-17T15:28:00.312Z,5.15
2023-06-17T15:30:28.615Z,5.50
2023-06-17T15:32:56.964Z,5.18
2023-06-17T15:35:26.612Z,5.18
2023-06-17T15:37:54.865Z,6.43
2023-06-17T15:40:23.808Z,7.55
2023-06-17T15:42:52.261Z,6.78
2023-06-17T15:45:20.674Z,4.32
2023-06-17T15:47:49.326Z,5.85
2023-06-17T15:50:17.826Z,6.85
2023-06-17T15:52:47.490Z,5.00
2023-06-17T15:55:15.848Z,6.68
2023-06-17T15:57:44.114Z,5.05
2023-06-17T16:00:13.014Z,5.63
2023-06-17T16:02:41.374Z,5.75
2023-06-17T16:05:10.222Z,7.68
2023-06-17T16:07:38.491Z,8.75
2023-06-17T16:10:08.706Z,7.97
2023-06-17T16:12:38.616Z,5.90
2023-06-17T16:15:07.606Z,5.45
2023-06-17T16:17:36.685Z,6.60
2023-06-17T16:20:05.204Z,5.30
2023-06-17T16:22:33.531Z,5.25
2023-06-17T16:25:01.805Z,6.53
2023-06-17T16:27:35.933Z,6.32
2023-06-17T16:30:04.385Z,5.95
2023-06-17T16:32:32.684Z,5.63
2023-06-17T16:35:00.962Z,5.78
2023-06-17T16:37:29.178Z,5.82
2023-06-17T16:39:57.441Z,5.78
2023-06-17T16:42:26.209Z,6.93
2023-06-17T16:44:55.833Z,6.57
2023-06-17T16:47:24.101Z,6.28
2023-06-17T16:49:52.349Z,5.20
2023-06-17T16:52:20.612Z,5.68
2023-06-17T16:54:48.865Z,6.82
2023-06-17T16:57:17.098Z,5.22
2023-06-17T16:59:45.480Z,5.93
2023-06-17T17:02:15.145Z,7.30
2023-06-17T17:04:43.687Z,8.07
2023-06-17T17:07:12.025Z,5.65
2023-06-17T17:09:41.182Z,7.68
2023-06-17T17:12:09.893Z,7.85
2023-06-17T17:14:38.497Z,5.88
2023-06-17T17:17:06.879Z,5.10
2023-06-17T17:19:36.447Z,5.30
2023-06-17T17:22:04.846Z,5.55
2023-06-17T17:24:33.175Z,5.43
2023-06-17T17:27:01.528Z,6.53
2023-06-17T17:29:29.772Z,4.55
2023-06-17T17:31:58.021Z,8.52
2023-06-17T17:34:26.270Z,4.68
2023-06-17T17:36:56.042Z,4.75
2023-06-17T17:39:24.316Z,7.78
2023-06-17T17:41:52.594Z,5.28
2023-06-17T17:44:20.846Z,6.25
2023-06-17T17:46:49.089Z,5.63
2023-06-17T17:49:17.699Z,5.28
2023-06-17T17:51:46.105Z,5.28
2023-06-17T17:54:15.716Z,4.70
2023-06-17T17:56:44.112Z,5.35
2023-06-17T17:59:12.377Z,5.05
2023-06-17T18:01:40.662Z,5.15
2023-06-17T18:04:10.145Z,6.85
2023-06-17T18:06:39.460Z,8.20
2023-06-17T18:09:08.023Z,5.57
2023-06-17T18:11:37.597Z,5.97
2023-06-17T18:14:05.948Z,8.40
2023-06-17T18:16:36.285Z,6.00
2023-06-17T18:19:05.657Z,6.30
2023-06-17T18:21:34.907Z,5.72
2023-06-17T18:24:05.097Z,5.05
2023-06-17T18:26:33.432Z,7.15
2023-06-17T18:29:03.141Z,8.30
2023-06-17T18:31:31.889Z,6.55
2023-06-17T18:34:00.143Z,10.15
2023-06-17T18:36:28.430Z,5.88
2023-06-17T18:38:57.085Z,8.70
2023-06-17T18:41:25.403Z,7.13
2023-06-17T18:43:53.668Z,9.20
2023-06-17T18:46:23.330Z,5.60
2023-06-17T18:48:53.077Z,5.65
2023-06-17T18:51:21.439Z,5.25
2023-06-17T18:53:49.697Z,5.55
2023-06-17T18:56:17.962Z,6.18
2023-06-17T18:58:46.452Z,7.70
2023-06-17T19:01:14.860Z,7.50
2023-06-17T19:03:44.492Z,8.15
2023-06-17T19:06:12.781Z,5.57
2023-06-17T19:08:41.031Z,5.60
2023-06-17T19:11:09.418Z,5.38
2023-06-17T19:13:38.166Z,6.45
2023-06-17T19:16:06.657Z,7.25
2023-06-17T19:18:34.948Z,6.93
2023-06-17T19:21:04.731Z,8.18
2023-06-17T19:23:33.043Z,6.32
2023-06-17T19:26:01.332Z,9.48
2023-06-17T19:28:29.589Z,6.03
2023-06-17T19:30:57.813Z,7.13
2023-06-17T19:33:29.181Z,6.85
2023-06-17T19:35:57.643Z,5.43
2023-06-17T19:38:28.260Z,7.20
2023-06-17T19:40:56.505Z,6.45
2023-06-17T19:43:26.969Z,7.20
2023-06-17T19:45:55.578Z,8.13
2023-06-17T19:48:24.005Z,7.55
2023-06-17T19:50:52.517Z,6.75
2023-06-17T19:53:20.781Z,7.03
2023-06-17T19:55:51.873Z,5.60
2023-06-17T19:58:20.498Z,7.45
2023-06-17T20:00:49.772Z,8.57
2023-06-17T20:03:18.185Z,7.10
2023-06-17T20:05:47.135Z,7.03
2023-06-17T20:08:15.572Z,7.25
2023-06-17T20:10:44.316Z,9.63
2023-06-17T20:13:14.919Z,9.70
2023-06-17T20:15:43.603Z,8.05
2023-06-17T20:18:11.959Z,11.27
2023-06-17T20:20:40.244Z,7.15
2023-06-17T20:23:08.490Z,7.30
2023-06-17T20:25:37.113Z,8.20
2023-06-17T20:28:05.434Z,8.43
2023-06-17T20:30:35.337Z,8.18
2023-06-17T20:33:03.659Z,9.70
2023-06-17T20:35:31.928Z,9.27
2023-06-17T20:38:00.178Z,9.00
2023-06-17T20:40:28.453Z,7.03
2023-06-17T20:42:56.783Z,7.18
2023-06-17T20:45:25.460Z,7.88
2023-06-17T20:47:55.122Z,10.40
2023-06-17T20:50:24.683Z,7.97
2023-06-17T20:52:53.154Z,8.05
2023-06-17T20:55:21.604Z,7.68
2023-06-17T20:57:49.883Z,13.38
2023-06-17T21:00:18.406Z,6.95
2023-06-17T21:02:46.913Z,7.30
2023-06-17T21:05:16.879Z,7.90
2023-06-17T21:07:45.982Z,7.07
2023-06-17T21:10:14.724Z,7.30
2023-06-17T21:12:42.978Z,10.18
2023-06-17T21:15:11.710Z,6.88
2023-06-17T21:17:40.247Z,8.55
2023-06-17T21:20:10.129Z,9.05
2023-06-17T21:22:39.871Z,7.10
2023-06-17T21:25:08.923Z,9.80
2023-06-17T21:27:37.205Z,7.32
2023-06-17T21:30:05.758Z,7.60
2023-06-17T21:32:34.078Z,7.25
2023-06-17T21:35:02.421Z,8.75
2023-06-17T21:37:30.681Z,8.32
2023-06-17T21:40:00.297Z,8.02
2023-06-17T21:42:28.566Z,10.65
2023-06-17T21:44:56.807Z,7.97
2023-06-17T21:47:25.051Z,8.00
2023-06-17T21:49:53.400Z,7.57
2023-06-17T21:52:21.643Z,7.53
2023-06-17T21:54:49.900Z,8.55
2023-06-17T21:57:23.374Z,8.30
2023-06-17T21:59:51.616Z,8.07
2023-06-17T22:02:19.912Z,8.00
2023-06-17T22:04:48.215Z,9.00
2023-06-17T22:07:16.588Z,8.57
2023-06-17T22:09:44.815Z,7.43
2023-06-17T22:12:13.260Z,9.10
2023-06-17T22:14:42.843Z,9.77
2023-06-17T22:17:11.223Z,9.05
2023-06-17T22:19:39.467Z,8.05
2023-06-17T22:22:08.472Z,9.43
2023-06-17T22:24:38.658Z,6.85
2023-06-17T22:27:07.794Z,8.20
2023-06-17T22:29:36.023Z,8.95
2023-06-17T22:32:06.171Z,7.80
2023-06-17T22:34:36.288Z,8.20
2023-06-17T22:37:05.425Z,11.70
2023-06-17T22:39:33.971Z,7.90
2023-06-17T22:42:02.247Z,10.98
2023-06-17T22:44:30.712Z,9.20
2023-06-17T22:46:59.077Z,10.02
2023-06-17T22:49:28.683Z,10.50
2023-06-17T22:51:56.926Z,8.13
2023-06-17T22:54:25.160Z,9.00
2023-06-17T22:56:53.455Z,8.80
2023-06-17T22:59:21.728Z,8.20
2023-06-17T23:01:50.014Z,8.25
2023-06-17T23:04:18.304Z,7.60
2023-06-17T23:06:47.919Z,8.88
2023-06-17T23:09:16.503Z,8.43
2023-06-17T23:11:45.785Z,8.98
2023-06-17T23:14:14.292Z,8.85
2023-06-17T23:16:42.546Z,8.82
2023-06-17T23:19:10.885Z,8.93
2023-06-17T23:21:41.699Z,8.45
2023-06-17T23:24:11.963Z,9.07
2023-06-17T23:26:41.573Z,11.02
2023-06-17T23:29:10.557Z,8.95
2023-06-17T23:31:39.570Z,10.05
2023-06-17T23:34:07.835Z,8.30
2023-06-17T23:36:36.107Z,9.75
2023-06-17T23:39:04.414Z,8.75
2023-06-17T23:41:33.995Z,10.18
2023-06-17T23:44:02.250Z,10.75
2023-06-17T23:46:30.880Z,9.65
2023-06-17T23:48:59.128Z,9.00
2023-06-17T23:51:27.684Z,9.65
2023-06-17T23:53:56.046Z,13.73
2023-06-17T23:56:24.326Z,10.00
2023-06-17T23:58:53.985Z,9.70
